Time;durP1;ratioP1;P1;durP2;ratioP2;P2;SDS_P1;SDS_P2;PMS_P1;PMS_P2;Temp;Humidity;BMP_temperature;BMP_pressure;BME280_temperature;BME280_humidity;BME280_pressure;Samples;Min_cycle;Max_cycle;Signal;HPM_P1;HPM_P2
2022/06/02 00:00:50;;;;;;;5.40;5.20;;;;;;;;;;10454754;28;20222;-74
2022/06/02 00:06:14;;;;;;;5.10;4.80;;;;;;;;;;10450627;28;20225;-74
2022/06/02 00:11:22;;;;;;;5.78;5.57;;;;;;;;;;10446795;28;20303;-73
2022/06/02 00:16:28;;;;;;;6.13;5.82;;;;;;;;;;10455977;28;20213;-74
2022/06/02 00:21:33;;;;;;;6.90;6.40;;;;;;;;;;10430929;28;20203;-74
2022/06/02 00:26:47;;;;;;;7.72;7.22;;;;;;;;;;10433447;28;20252;-74
2022/06/02 00:31:50;;;;;;;8.15;7.63;;;;;;;;;;10453119;28;20225;-74
2022/06/02 00:37:10;;;;;;;7.95;7.35;;;;;;;;;;10453827;28;20210;-74
2022/06/02 00:42:24;;;;;;;7.38;6.97;;;;;;;;;;10462993;28;20807;-75
2022/06/02 00:47:44;;;;;;;7.50;6.85;;;;;;;;;;10459605;28;20211;-73
2022/06/02 00:52:55;;;;;;;6.93;6.63;;;;;;;;;;10446677;28;20288;-74
2022/06/02 00:58:14;;;;;;;7.25;6.82;;;;;;;;;;10438900;28;20214;-74
2022/06/02 01:03:23;;;;;;;6.80;6.30;;;;;;;;;;10459374;28;20243;-74
2022/06/02 01:08:40;;;;;;;6.82;6.53;;;;;;;;;;10445570;28;20950;-75
2022/06/02 01:14:07;;;;;;;6.68;6.38;;;;;;;;;;10437955;28;20202;-74
2022/06/02 01:19:27;;;;;;;5.72;5.53;;;;;;;;;;10400318;28;20230;-74
2022/06/02 01:24:40;;;;;;;5.43;5.20;;;;;;;;;;10443908;28;20712;-74
2022/06/02 01:29:54;;;;;;;5.53;5.13;;;;;;;;;;10441718;28;20209;-74
2022/06/02 01:35:04;;;;;;;6.47;6.07;;;;;;;;;;10442370;28;20210;-74
2022/06/02 01:40:10;;;;;;;6.13;5.82;;;;;;;;;;10456775;28;20211;-74
2022/06/02 01:45:17;;;;;;;5.60;5.40;;;;;;;;;;10424561;28;20205;-74
2022/06/02 01:50:27;;;;;;;6.32;6.03;;;;;;;;;;10440174;28;20194;-74
2022/06/02 01:55:34;;;;;;;16.60;6.45;;;;;;;;;;10446701;28;20221;-74
2022/06/02 02:00:36;;;;;;;8.10;6.25;;;;;;;;;;10452899;28;20702;-75
2022/06/02 02:05:50;;;;;;;7.03;6.63;;;;;;;;;;10400140;28;1045161;-75
2022/06/02 02:11:00;;;;;;;6.35;6.07;;;;;;;;;;10447956;28;20302;-74
2022/06/02 02:16:11;;;;;;;6.22;5.93;;;;;;;;;;10438455;28;20366;-74
2022/06/02 02:21:23;;;;;;;7.38;6.93;;;;;;;;;;10450509;28;20199;-75
2022/06/02 02:26:47;;;;;;;7.70;7.20;;;;;;;;;;10440790;28;20199;-75
2022/06/02 02:32:23;;;;;;;7.18;6.78;;;;;;;;;;10424169;28;20236;-75
2022/06/02 02:37:24;;;;;;;7.60;7.00;;;;;;;;;;10335914;28;20242;-75
2022/06/02 02:42:35;;;;;;;7.70;7.20;;;;;;;;;;10424504;28;20221;-75
2022/06/02 02:47:55;;;;;;;7.18;6.72;;;;;;;;;;10437780;28;20199;-74
2022/06/02 02:53:00;;;;;;;7.97;7.38;;;;;;;;;;10442216;28;20199;-74
2022/06/02 02:58:11;;;;;;;8.93;8.25;;;;;;;;;;10430096;28;20214;-75
2022/06/02 03:03:12;;;;;;;9.60;8.43;;;;;;;;;;10458457;28;20219;-74
2022/06/02 03:08:18;;;;;;;9.85;9.05;;;;;;;;;;10430853;28;20225;-74
2022/06/02 03:13:25;;;;;;;11.20;10.18;;;;;;;;;;10454899;28;20699;-75
2022/06/02 03:18:35;;;;;;;10.60;9.80;;;;;;;;;;10432129;28;20597;-74
2022/06/02 03:23:46;;;;;;;9.95;9.18;;;;;;;;;;10423258;28;20207;-74
2022/06/02 03:28:53;;;;;;;11.07;10.13;;;;;;;;;;10442023;28;21410;-74
2022/06/02 03:34:00;;;;;;;11.30;10.10;;;;;;;;;;10449729;28;20214;-74
2022/06/02 03:39:01;;;;;;;10.07;9.27;;;;;;;;;;10441038;28;20838;-76
2022/06/02 03:44:27;;;;;;;11.23;10.27;;;;;;;;;;10458199;28;20195;-74
2022/06/02 03:49:43;;;;;;;11.70;10.55;;;;;;;;;;10460314;28;20217;-74
2022/06/02 03:54:47;;;;;;;12.73;11.52;;;;;;;;;;10459129;28;20225;-75
2022/06/02 03:59:56;;;;;;;12.85;11.60;;;;;;;;;;10450240;28;20210;-74
2022/06/02 04:05:04;;;;;;;14.32;12.82;;;;;;;;;;10457476;28;20219;-75
2022/06/02 04:10:23;;;;;;;14.73;13.30;;;;;;;;;;10442678;28;20241;-74
2022/06/02 04:15:43;;;;;;;16.50;13.63;;;;;;;;;;10431378;28;20556;-74
2022/06/02 04:20:57;;;;;;;17.23;15.43;;;;;;;;;;10449792;28;20194;-77
2022/06/02 04:26:17;;;;;;;18.67;16.38;;;;;;;;;;10458325;28;20202;-76
2022/06/02 04:31:29;;;;;;;19.08;16.30;;;;;;;;;;10458193;28;20241;-75
2022/06/02 04:36:42;;;;;;;19.60;16.50;;;;;;;;;;10454601;28;20238;-77
2022/06/02 04:41:53;;;;;;;22.23;16.95;;;;;;;;;;10420585;28;21836;-76
2022/06/02 04:47:13;;;;;;;19.90;16.95;;;;;;;;;;10416091;28;20211;-77
2022/06/02 04:52:21;;;;;;;17.50;15.60;;;;;;;;;;10435345;28;20198;-77
2022/06/02 04:57:42;;;;;;;17.27;15.57;;;;;;;;;;10433381;28;20209;-77
2022/06/02 05:02:52;;;;;;;16.60;14.82;;;;;;;;;;10414777;28;20221;-77
2022/06/02 05:08:05;;;;;;;15.68;14.13;;;;;;;;;;10425301;28;20226;-78
2022/06/02 05:13:10;;;;;;;16.98;15.38;;;;;;;;;;10417690;28;20197;-77
2022/06/02 05:18:14;;;;;;;15.90;14.40;;;;;;;;;;10453033;28;20210;-77
2022/06/02 05:23:15;;;;;;;15.05;13.68;;;;;;;;;;10422238;28;20286;-77
2022/06/02 05:28:23;;;;;;;15.65;13.95;;;;;;;;;;10438544;28;20225;-76
2022/06/02 05:33:34;;;;;;;14.07;12.73;;;;;;;;;;10420062;28;20210;-77
2022/06/02 05:38:54;;;;;;;13.70;12.38;;;;;;;;;;10431537;28;20270;-76
2022/06/02 05:43:55;;;;;;;12.75;11.65;;;;;;;;;;10418397;28;20208;-76
2022/06/02 05:49:05;;;;;;;12.07;11.07;;;;;;;;;;10427062;28;20213;-77
2022/06/02 05:54:06;;;;;;;11.50;10.60;;;;;;;;;;10430693;28;20199;-77
2022/06/02 05:59:10;;;;;;;11.65;10.85;;;;;;;;;;10423645;28;20214;-77
2022/06/02 06:04:30;;;;;;;11.60;10.60;;;;;;;;;;10436149;28;21723;-77
2022/06/02 06:09:41;;;;;;;12.02;10.88;;;;;;;;;;10349327;28;20220;-77
2022/06/02 06:14:52;;;;;;;11.52;10.63;;;;;;;;;;10363783;28;20647;-78
2022/06/02 06:20:02;;;;;;;9.23;8.52;;;;;;;;;;10357756;28;20210;-77
2022/06/02 06:25:22;;;;;;;8.35;7.85;;;;;;;;;;10382735;28;20331;-77
2022/06/02 06:30:24;;;;;;;9.85;8.98;;;;;;;;;;10379835;28;20773;-77
2022/06/02 06:35:42;;;;;;;9.95;9.25;;;;;;;;;;10374326;28;20240;-77
2022/06/02 06:41:05;;;;;;;8.95;8.30;;;;;;;;;;10387782;28;20257;-79
2022/06/02 06:46:25;;;;;;;8.52;7.82;;;;;;;;;;10365059;28;20784;-77
2022/06/02 06:51:38;;;;;;;9.38;8.20;;;;;;;;;;10376972;28;20829;-77
2022/06/02 06:56:45;;;;;;;7.40;6.78;;;;;;;;;;10378698;28;20590;-77
2022/06/02 07:02:05;;;;;;;8.73;8.05;;;;;;;;;;10380738;28;20255;-78
2022/06/02 07:07:19;;;;;;;9.05;8.25;;;;;;;;;;10412422;28;20234;-78
2022/06/02 07:12:53;;;;;;;10.15;9.15;;;;;;;;;;10398715;28;20205;-78
2022/06/02 07:18:01;;;;;;;8.23;7.63;;;;;;;;;;10430936;28;20221;-76
2022/06/02 07:23:11;;;;;;;7.78;7.18;;;;;;;;;;10441011;28;20249;-77
2022/06/02 07:28:21;;;;;;;7.78;7.13;;;;;;;;;;10437951;28;20210;-77
2022/06/02 07:33:40;;;;;;;8.32;7.53;;;;;;;;;;10434853;28;20222;-77
2022/06/02 07:38:54;;;;;;;6.90;6.50;;;;;;;;;;10433599;28;20313;-76
2022/06/02 07:44:07;;;;;;;6.32;6.00;;;;;;;;;;10435440;28;20206;-77
2022/06/02 07:49:27;;;;;;;6.60;6.30;;;;;;;;;;10434742;28;20281;-76
2022/06/02 07:54:39;;;;;;;6.00;5.63;;;;;;;;;;10444328;28;20204;-78
2022/06/02 07:59:58;;;;;;;6.03;5.72;;;;;;;;;;10437512;28;20233;-78
2022/06/02 08:05:04;;;;;;;6.32;5.90;;;;;;;;;;10429124;28;20216;-78
2022/06/02 08:10:20;;;;;;;5.38;5.18;;;;;;;;;;10440285;28;20974;-79
2022/06/02 08:15:21;;;;;;;5.10;4.90;;;;;;;;;;10448420;28;20256;-78
2022/06/02 08:20:41;;;;;;;7.28;5.53;;;;;;;;;;10449213;28;20201;-78
2022/06/02 08:25:57;;;;;;;5.38;5.07;;;;;;;;;;10447912;28;20217;-77
2022/06/02 08:31:01;;;;;;;6.20;5.70;;;;;;;;;;10443570;28;20292;-77
2022/06/02 08:36:15;;;;;;;5.47;5.05;;;;;;;;;;10450083;28;20219;-77
2022/06/02 08:41:28;;;;;;;4.32;4.07;;;;;;;;;;10440512;28;20205;-77
2022/06/02 08:46:29;;;;;;;3.42;3.38;;;;;;;;;;10448370;28;20372;-78
2022/06/02 08:51:49;;;;;;;4.72;4.20;;;;;;;;;;10440776;28;20209;-77
2022/06/02 08:57:00;;;;;;;4.50;4.22;;;;;;;;;;10427890;28;20463;-77
2022/06/02 09:02:04;;;;;;;4.32;4.13;;;;;;;;;;10449890;28;20214;-76
2022/06/02 09:07:19;;;;;;;4.00;3.90;;;;;;;;;;10447251;28;20235;-77
2022/06/02 09:12:23;;;;;;;3.15;3.05;;;;;;;;;;10446057;28;20191;-78
2022/06/02 09:17:24;;;;;;;2.25;2.25;;;;;;;;;;10423335;28;20214;-76
2022/06/02 09:22:34;;;;;;;2.95;2.78;;;;;;;;;;10468235;28;20776;-77
2022/06/02 09:27:50;;;;;;;2.03;1.92;;;;;;;;;;10461757;28;20761;-76
2022/06/02 09:38:37;;;;;;;3.10;2.72;;;;;;;;;;10465497;28;20221;-77
2022/06/02 09:43:49;;;;;;;1.90;1.80;;;;;;;;;;10460612;28;20193;-76
2022/06/02 09:49:09;;;;;;;2.03;1.92;;;;;;;;;;10442913;28;20269;-76
2022/06/02 09:54:28;;;;;;;2.30;1.65;;;;;;;;;;10442881;28;20214;-77
2022/06/02 09:59:29;;;;;;;2.55;2.30;;;;;;;;;;10426934;28;20281;-77
2022/06/02 10:04:37;;;;;;;2.78;1.90;;;;;;;;;;10453431;28;20252;-77
2022/06/02 10:09:38;;;;;;;1.60;1.60;;;;;;;;;;10446333;28;20203;-76
2022/06/02 10:15:09;;;;;;;2.20;2.00;;;;;;;;;;10438426;28;20203;-76
2022/06/02 10:20:18;;;;;;;2.00;1.90;;;;;;;;;;10460570;28;20620;-77
2022/06/02 10:25:29;;;;;;;0.85;0.85;;;;;;;;;;10444489;28;20260;-76
2022/06/02 10:30:59;;;;;;;1.02;1.02;;;;;;;;;;10455659;28;20195;-76
2022/06/02 10:36:10;;;;;;;1.00;1.00;;;;;;;;;;10443460;28;20251;-76
2022/06/02 10:41:26;;;;;;;1.02;1.02;;;;;;;;;;10432021;28;21143;-76
2022/06/02 10:46:41;;;;;;;1.55;1.55;;;;;;;;;;10433035;28;20190;-76
2022/06/02 10:52:01;;;;;;;1.00;1.00;;;;;;;;;;10454870;28;20201;-76
2022/06/02 10:57:19;;;;;;;1.92;1.23;;;;;;;;;;10463733;28;20214;-77
2022/06/02 11:02:39;;;;;;;1.00;1.00;;;;;;;;;;10431712;28;20216;-77
2022/06/02 11:07:54;;;;;;;1.00;1.00;;;;;;;;;;10452811;28;21104;-77
2022/06/02 11:13:22;;;;;;;2.05;1.00;;;;;;;;;;10434219;28;20204;-77
2022/06/02 11:18:26;;;;;;;1.08;1.08;;;;;;;;;;10429730;28;20353;-76
2022/06/02 11:23:45;;;;;;;1.70;0.80;;;;;;;;;;10439147;28;20287;-77
2022/06/02 11:28:46;;;;;;;0.90;0.90;;;;;;;;;;10420363;28;20207;-78
2022/06/02 11:34:10;;;;;;;1.67;1.10;;;;;;;;;;10437715;28;20974;-76
2022/06/02 11:39:24;;;;;;;1.45;1.45;;;;;;;;;;10424928;28;20382;-76
2022/06/02 11:44:34;;;;;;;2.13;1.88;;;;;;;;;;10405826;28;20214;-78
2022/06/02 11:49:35;;;;;;;2.30;2.20;;;;;;;;;;10419867;28;20683;-77
2022/06/02 11:54:47;;;;;;;2.05;1.95;;;;;;;;;;10428297;28;20214;-76
2022/06/02 12:00:07;;;;;;;1.80;1.70;;;;;;;;;;10413213;28;20354;-76
2022/06/02 12:05:11;;;;;;;1.98;1.98;;;;;;;;;;10438864;28;20218;-77
2022/06/02 12:10:27;;;;;;;1.55;1.55;;;;;;;;;;10452936;28;20731;-77
2022/06/02 12:15:34;;;;;;;1.40;1.40;;;;;;;;;;10443875;28;20202;-77
2022/06/02 12:20:48;;;;;;;1.65;1.55;;;;;;;;;;10431398;28;20309;-77
2022/06/02 12:26:04;;;;;;;2.05;1.40;;;;;;;;;;10422055;28;20198;-76
2022/06/02 12:31:12;;;;;;;1.33;1.00;;;;;;;;;;10422204;28;20218;-77
2022/06/02 12:36:31;;;;;;;1.02;1.02;;;;;;;;;;10444238;28;20209;-76
2022/06/02 12:41:32;;;;;;;0.80;0.80;;;;;;;;;;10450627;28;20561;-76
2022/06/02 12:46:42;;;;;;;1.02;1.02;;;;;;;;;;10453091;28;20198;-76
2022/06/02 12:52:05;;;;;;;0.80;0.80;;;;;;;;;;10433227;28;20213;-77
2022/06/02 12:57:24;;;;;;;1.35;1.35;;;;;;;;;;10422946;28;20206;-77
2022/06/02 13:02:44;;;;;;;2.33;1.20;;;;;;;;;;10392346;28;20224;-78
2022/06/02 13:08:04;;;;;;;1.48;0.88;;;;;;;;;;10398884;28;20230;-79
2022/06/02 13:13:15;;;;;;;1.80;1.30;;;;;;;;;;10407344;28;20202;-79
2022/06/02 13:18:30;;;;;;;1.17;1.08;;;;;;;;;;10410187;28;20198;-78
2022/06/02 13:23:38;;;;;;;1.02;1.02;;;;;;;;;;10408403;28;20190;-78
2022/06/02 13:28:58;;;;;;;1.10;1.10;;;;;;;;;;10425582;28;20305;-77
2022/06/02 13:34:21;;;;;;;0.90;0.90;;;;;;;;;;10439603;28;20229;-77
2022/06/02 13:39:41;;;;;;;0.82;0.80;;;;;;;;;;10446044;28;20312;-76
2022/06/02 13:44:54;;;;;;;1.52;1.05;;;;;;;;;;10442967;28;20273;-76
2022/06/02 13:50:01;;;;;;;1.15;1.15;;;;;;;;;;10430019;28;20222;-76
2022/06/02 14:00:40;;;;;;;1.13;0.90;;;;;;;;;;10427927;28;20229;-77
2022/06/02 14:06:06;;;;;;;0.93;0.85;;;;;;;;;;10446740;28;20245;-77
2022/06/02 14:11:17;;;;;;;0.80;0.80;;;;;;;;;;10442583;28;20191;-77
2022/06/02 14:16:23;;;;;;;1.40;0.73;;;;;;;;;;10428277;28;20210;-77
2022/06/02 14:21:24;;;;;;;1.75;0.40;;;;;;;;;;10430598;28;20207;-77
2022/06/02 14:26:44;;;;;;;0.60;0.60;;;;;;;;;;10445108;28;20289;-77
2022/06/02 14:31:48;;;;;;;0.65;0.50;;;;;;;;;;10432745;28;20272;-77
2022/06/02 14:37:02;;;;;;;0.68;0.60;;;;;;;;;;10446396;28;20210;-77
2022/06/02 14:42:21;;;;;;;0.90;0.90;;;;;;;;;;10447949;28;20289;-77
2022/06/02 14:47:26;;;;;;;0.90;0.50;;;;;;;;;;10441726;28;20199;-77
2022/06/02 14:52:37;;;;;;;0.57;0.57;;;;;;;;;;10445442;28;20210;-77
2022/06/02 14:57:41;;;;;;;0.65;0.60;;;;;;;;;;10457582;28;20210;-76
2022/06/02 15:02:51;;;;;;;0.77;0.43;;;;;;;;;;10449068;28;20926;-77
2022/06/02 15:07:53;;;;;;;0.70;0.60;;;;;;;;;;10452214;28;20218;-76
2022/06/02 15:13:13;;;;;;;0.63;0.63;;;;;;;;;;10450656;28;20199;-77
2022/06/02 15:18:41;;;;;;;2.35;0.50;;;;;;;;;;10458808;28;20321;-77
2022/06/02 15:23:48;;;;;;;0.73;0.73;;;;;;;;;;10422431;28;20321;-77
2022/06/02 15:29:08;;;;;;;0.50;0.50;;;;;;;;;;10409976;28;20191;-76
2022/06/02 15:34:29;;;;;;;0.82;0.45;;;;;;;;;;10460804;28;20218;-77
2022/06/02 15:39:49;;;;;;;0.40;0.40;;;;;;;;;;10451423;28;20210;-76
2022/06/02 15:44:50;;;;;;;0.50;0.50;;;;;;;;;;10415917;28;20203;-77
2022/06/02 15:50:09;;;;;;;0.63;0.40;;;;;;;;;;10429334;28;20203;-77
2022/06/02 15:55:16;;;;;;;1.77;0.60;;;;;;;;;;10426213;28;20197;-76
2022/06/02 16:00:46;;;;;;;2.72;0.50;;;;;;;;;;10404639;28;20216;-77
2022/06/02 16:05:46;;;;;;;0.55;0.45;;;;;;;;;;10420452;28;20219;-77
2022/06/02 16:11:15;;;;;;;0.40;0.40;;;;;;;;;;10423064;28;20234;-77
2022/06/02 16:16:32;;;;;;;1.88;0.40;;;;;;;;;;10419537;28;20285;-76
2022/06/02 16:21:33;;;;;;;0.50;0.50;;;;;;;;;;10429687;28;20202;-77
2022/06/02 16:26:53;;;;;;;1.95;0.60;;;;;;;;;;10436829;28;20204;-76
2022/06/02 16:32:03;;;;;;;0.47;0.30;;;;;;;;;;10436422;28;20256;-76
2022/06/02 16:37:08;;;;;;;0.40;0.40;;;;;;;;;;10452095;28;20234;-76
2022/06/02 16:42:22;;;;;;;0.38;0.38;;;;;;;;;;10448041;28;20191;-76
2022/06/02 16:47:42;;;;;;;1.33;0.40;;;;;;;;;;10431854;28;20206;-77
2022/06/02 16:53:01;;;;;;;0.30;0.30;;;;;;;;;;10443951;28;20202;-77
2022/06/02 16:58:41;;;;;;;0.60;0.60;;;;;;;;;;10422954;28;20224;-77
2022/06/02 17:03:42;;;;;;;0.30;0.30;;;;;;;;;;10302157;28;20247;-76
2022/06/02 17:08:55;;;;;;;0.30;0.30;;;;;;;;;;10303282;28;23579;-76
2022/06/02 17:14:02;;;;;;;0.30;0.30;;;;;;;;;;10299503;28;20217;-77
2022/06/02 17:19:09;;;;;;;0.40;0.40;;;;;;;;;;10307279;28;20292;-77
2022/06/02 17:24:22;;;;;;;1.45;0.30;;;;;;;;;;10312054;28;20456;-77
2022/06/02 17:29:23;;;;;;;0.40;0.40;;;;;;;;;;10307840;28;20212;-77
2022/06/02 17:34:30;;;;;;;2.22;0.40;;;;;;;;;;10375238;28;20224;-77
2022/06/02 17:39:57;;;;;;;0.40;0.40;;;;;;;;;;10435445;28;20217;-78
2022/06/02 17:45:01;;;;;;;0.57;0.40;;;;;;;;;;10444529;28;20319;-77
2022/06/02 17:50:26;;;;;;;1.27;0.50;;;;;;;;;;10449767;28;20304;-77
2022/06/02 17:55:30;;;;;;;2.60;0.30;;;;;;;;;;10443124;28;20880;-77
2022/06/02 18:00:34;;;;;;;1.27;0.35;;;;;;;;;;10454590;28;20211;-77
2022/06/02 18:05:55;;;;;;;1.02;0.32;;;;;;;;;;10454883;28;20236;-77
2022/06/02 18:11:09;;;;;;;0.20;0.20;;;;;;;;;;10442958;28;20217;-77
2022/06/02 18:16:19;;;;;;;0.40;0.40;;;;;;;;;;10458840;28;20686;-77
2022/06/02 18:21:44;;;;;;;0.40;0.40;;;;;;;;;;10449167;28;20217;-77
2022/06/02 18:26:53;;;;;;;0.40;0.40;;;;;;;;;;10419099;28;20293;-77
2022/06/02 18:32:05;;;;;;;2.30;0.60;;;;;;;;;;10442736;28;20222;-76
2022/06/02 18:37:26;;;;;;;0.40;0.40;;;;;;;;;;10448031;28;20210;-76
2022/06/02 18:42:31;;;;;;;0.40;0.40;;;;;;;;;;10442284;28;20207;-77
2022/06/02 18:47:50;;;;;;;0.40;0.40;;;;;;;;;;10454940;28;20230;-77
2022/06/02 18:52:57;;;;;;;1.42;0.50;;;;;;;;;;10438383;28;20202;-75
2022/06/02 18:57:58;;;;;;;0.73;0.47;;;;;;;;;;10449213;28;20202;-75
2022/06/02 19:03:12;;;;;;;0.40;0.40;;;;;;;;;;10450167;28;20213;-74
2022/06/02 19:13:56;;;;;;;0.43;0.43;;;;;;;;;;10447730;28;20237;-74
2022/06/02 19:19:05;;;;;;;0.60;0.50;;;;;;;;;;10453290;28;20206;-73
2022/06/02 19:24:18;;;;;;;0.60;0.60;;;;;;;;;;10439785;28;20198;-73
2022/06/02 19:29:38;;;;;;;1.30;0.50;;;;;;;;;;10436412;28;20203;-75
2022/06/02 19:35:02;;;;;;;0.50;0.50;;;;;;;;;;10421442;28;20796;-74
2022/06/02 19:40:15;;;;;;;1.90;0.55;;;;;;;;;;10462781;28;20309;-73
2022/06/02 19:45:26;;;;;;;0.70;0.70;;;;;;;;;;10420348;28;20201;-75
2022/06/02 19:50:27;;;;;;;0.50;0.50;;;;;;;;;;10458734;28;20210;-73
2022/06/02 19:55:40;;;;;;;0.77;0.68;;;;;;;;;;10454719;28;20206;-75
2022/06/02 20:00:48;;;;;;;0.60;0.60;;;;;;;;;;10446550;28;20222;-73
2022/06/02 20:05:53;;;;;;;1.10;0.65;;;;;;;;;;10455132;28;20233;-75
2022/06/02 20:10:55;;;;;;;0.85;0.85;;;;;;;;;;10438130;28;20765;-73
2022/06/02 20:15:58;;;;;;;0.85;0.50;;;;;;;;;;10416551;28;20748;-74
2022/06/02 20:20:59;;;;;;;3.55;0.63;;;;;;;;;;10423102;28;20195;-75
2022/06/02 20:26:03;;;;;;;0.68;0.68;;;;;;;;;;10468769;28;20296;-74
2022/06/02 20:31:15;;;;;;;0.80;0.80;;;;;;;;;;10454929;28;20336;-74
2022/06/02 20:36:34;;;;;;;2.55;0.70;;;;;;;;;;10465779;28;20280;-74
2022/06/02 20:41:41;;;;;;;0.70;0.70;;;;;;;;;;10449585;28;20232;-74
2022/06/02 20:46:53;;;;;;;0.80;0.80;;;;;;;;;;10459680;28;20198;-74
2022/06/02 20:52:00;;;;;;;1.00;1.00;;;;;;;;;;10428346;28;20205;-74
2022/06/02 20:57:20;;;;;;;1.00;1.00;;;;;;;;;;10465843;28;20210;-75
2022/06/02 21:02:27;;;;;;;1.10;1.10;;;;;;;;;;10446683;28;20207;-74
2022/06/02 21:07:36;;;;;;;1.40;1.30;;;;;;;;;;10452303;28;20351;-75
2022/06/02 21:12:46;;;;;;;1.23;1.23;;;;;;;;;;10452304;28;20245;-74
2022/06/02 21:17:50;;;;;;;2.90;1.85;;;;;;;;;;10427607;28;21260;-75
2022/06/02 21:22:55;;;;;;;1.90;1.63;;;;;;;;;;10440399;28;20262;-74
2022/06/02 21:28:02;;;;;;;2.30;1.70;;;;;;;;;;10440277;28;20232;-74
2022/06/02 21:33:07;;;;;;;1.70;1.60;;;;;;;;;;10437093;28;20275;-75
2022/06/02 21:38:15;;;;;;;1.77;1.70;;;;;;;;;;10456147;28;20237;-75
2022/06/02 21:43:19;;;;;;;1.85;1.65;;;;;;;;;;10463328;28;20222;-75
2022/06/02 21:48:35;;;;;;;1.65;1.65;;;;;;;;;;10458437;28;20198;-74
2022/06/02 21:53:59;;;;;;;2.05;1.75;;;;;;;;;;10460663;28;20300;-75
2022/06/02 21:59:07;;;;;;;1.50;1.50;;;;;;;;;;10455644;28;20295;-75
2022/06/02 22:04:11;;;;;;;1.90;1.80;;;;;;;;;;10466626;28;20218;-74
2022/06/02 22:09:19;;;;;;;2.10;1.90;;;;;;;;;;10456933;28;20230;-75
2022/06/02 22:14:33;;;;;;;1.65;1.63;;;;;;;;;;10457258;28;20217;-75
2022/06/02 22:19:41;;;;;;;2.88;2.63;;;;;;;;;;10463049;28;20309;-74
2022/06/02 22:25:01;;;;;;;2.22;2.05;;;;;;;;;;10445842;28;20246;-74
2022/06/02 22:30:09;;;;;;;1.95;1.85;;;;;;;;;;10445657;28;20940;-74
2022/06/02 22:35:09;;;;;;;2.10;2.00;;;;;;;;;;10455531;28;20214;-75
2022/06/02 22:40:22;;;;;;;1.75;1.75;;;;;;;;;;10461810;28;20205;-74
2022/06/02 22:45:23;;;;;;;2.38;2.28;;;;;;;;;;10469109;28;20222;-76
2022/06/02 22:50:29;;;;;;;2.47;2.22;;;;;;;;;;10446175;28;20206;-73
2022/06/02 22:55:30;;;;;;;2.08;2.08;;;;;;;;;;10437371;28;20420;-73
2022/06/02 23:00:40;;;;;;;1.83;1.67;;;;;;;;;;10443678;28;20918;-74
2022/06/02 23:05:47;;;;;;;1.65;1.65;;;;;;;;;;10435973;28;20246;-77
2022/06/02 23:11:00;;;;;;;1.90;1.80;;;;;;;;;;10448340;28;20221;-75
2022/06/02 23:16:17;;;;;;;4.10;1.60;;;;;;;;;;10467024;28;21111;-73
2022/06/02 23:21:37;;;;;;;2.30;2.00;;;;;;;;;;10466892;28;20226;-75
2022/06/02 23:26:50;;;;;;;1.85;1.75;;;;;;;;;;10443872;28;20197;-74
2022/06/02 23:31:57;;;;;;;1.88;1.77;;;;;;;;;;10463631;28;20247;-74
2022/06/02 23:37:12;;;;;;;5.07;2.05;;;;;;;;;;10460181;28;20241;-74
2022/06/02 23:47:53;;;;;;;2.10;2.10;;;;;;;;;;10450579;28;20206;-76
2022/06/02 23:53:04;;;;;;;2.22;1.92;;;;;;;;;;10460177;28;20212;-74
2022/06/02 23:58:24;;;;;;;2.42;2.33;;;;;;;;;;10465813;28;20761;-74
